createdAt,value
2023-11-10T00:03:59.365Z,59995.03
2023-11-10T00:09:01.785Z,59965.59
2023-11-10T00:14:11.278Z,59997.13
2023-11-10T00:19:17.438Z,59984.53
2023-11-10T00:24:20.082Z,59995.03
2023-11-10T00:29:22.322Z,59978.22
2023-11-10T00:34:25.953Z,59974.00
2023-11-10T00:39:28.788Z,60005.53
2023-11-10T00:44:31.026Z,59971.91
2023-11-10T00:49:34.602Z,59959.28
2023-11-10T00:54:36.821Z,59999.22
2023-11-10T00:59:39.015Z,60003.44
2023-11-10T01:04:43.317Z,60003.44
2023-11-10T01:09:45.564Z,60007.66
2023-11-10T01:14:47.868Z,59992.94
2023-11-10T01:19:51.393Z,59978.22
2023-11-10T01:24:53.721Z,60001.34
2023-11-10T01:29:56.012Z,60003.44
2023-11-10T01:35:00.037Z,60024.47
2023-11-10T01:40:03.948Z,59988.72
2023-11-10T01:45:07.159Z,60028.66
2023-11-10T01:50:11.905Z,59982.41
2023-11-10T01:55:16.965Z,60041.28
2023-11-10T02:00:22.861Z,59999.22
2023-11-10T02:05:26.842Z,59969.81
2023-11-10T02:10:29.495Z,60003.44
2023-11-10T02:15:31.877Z,59969.81
2023-11-10T02:20:35.432Z,59990.81
2023-11-10T02:25:39.225Z,60018.16
2023-11-10T02:30:41.433Z,59961.41
2023-11-10T02:35:43.703Z,59992.94
2023-11-10T02:40:47.250Z,59990.81
2023-11-10T02:45:49.534Z,59990.81
2023-11-10T02:50:52.166Z,59953.00
2023-11-10T02:55:55.776Z,60039.19
2023-11-10T03:00:58.033Z,60001.34
2023-11-10T03:06:01.167Z,60016.06
2023-11-10T03:11:05.201Z,59982.41
2023-11-10T03:16:08.194Z,60003.44
2023-11-10T03:21:17.424Z,59995.03
2023-11-10T03:26:21.140Z,59967.69
2023-11-10T03:31:23.537Z,59974.00
2023-11-10T03:36:25.847Z,60007.66
2023-11-10T03:41:29.395Z,60022.34
2023-11-10T03:46:31.596Z,60032.88
2023-11-10T03:51:33.939Z,59961.41
2023-11-10T03:56:37.540Z,60039.19
2023-11-10T04:01:40.467Z,60039.19
2023-11-10T04:06:43.162Z,59957.19
2023-11-10T04:11:46.846Z,60020.25
2023-11-10T04:16:49.857Z,59982.41
2023-11-10T04:21:52.132Z,59999.22
2023-11-10T04:26:56.303Z,60013.94
2023-11-10T04:31:58.536Z,59982.41
2023-11-10T04:37:00.835Z,59986.63
2023-11-10T04:42:04.460Z,60007.66
2023-11-10T04:47:06.991Z,60009.75
2023-11-10T04:52:09.227Z,59974.00
2023-11-10T04:57:12.911Z,59974.00
2023-11-10T05:02:15.093Z,60016.06
2023-11-10T05:07:17.302Z,60018.16
2023-11-10T05:12:21.332Z,60024.47
2023-11-10T05:17:23.536Z,60026.56
2023-11-10T05:22:25.757Z,59978.22
2023-11-10T05:27:29.987Z,59976.13
2023-11-10T05:32:32.777Z,60030.78
2023-11-10T05:37:35.074Z,60003.44
2023-11-10T05:42:39.164Z,60011.84
2023-11-10T05:47:41.441Z,60047.59
2023-11-10T05:52:43.759Z,59995.03
2023-11-10T05:57:48.322Z,59982.41
2023-11-10T06:02:51.743Z,59978.22
2023-11-10T06:07:55.555Z,60016.06
2023-11-10T06:12:59.234Z,59995.03
2023-11-10T06:18:01.509Z,60028.66
2023-11-10T06:23:04.068Z,59971.91
2023-11-10T06:28:07.778Z,59978.22
2023-11-10T06:33:10.056Z,59986.63
2023-11-10T06:38:12.284Z,59999.22
2023-11-10T06:43:15.831Z,59988.72
2023-11-10T06:48:18.122Z,59969.81
2023-11-10T06:53:21.460Z,60032.88
2023-11-10T06:58:25.036Z,59995.03
2023-11-10T07:03:27.356Z,59976.13
2023-11-10T07:08:31.327Z,60022.34
2023-11-10T07:13:34.898Z,60007.66
2023-11-10T07:18:37.207Z,59965.59
2023-11-10T07:23:39.414Z,59995.03
2023-11-10T07:28:42.961Z,59961.41
2023-11-10T07:33:45.598Z,59988.72
2023-11-10T07:38:47.898Z,59988.72
2023-11-10T07:43:51.610Z,59957.19
2023-11-10T07:48:53.874Z,59963.50
2023-11-10T07:53:56.103Z,59974.00
2023-11-10T07:58:59.673Z,59955.09
2023-11-10T08:04:02.459Z,59982.41
2023-11-10T08:09:05.371Z,59978.22
2023-11-10T08:14:08.917Z,59965.59
2023-11-10T08:19:11.547Z,59986.63
2023-11-10T08:24:13.752Z,59969.81
2023-11-10T08:29:17.359Z,60011.84
2023-11-10T08:34:22.264Z,59974.00
2023-11-10T08:39:24.520Z,59990.81
2023-11-10T08:44:28.224Z,59931.97
2023-11-10T08:49:30.638Z,59965.59
2023-11-10T08:54:34.853Z,59915.16
2023-11-10T08:59:39.011Z,59940.38
2023-11-10T09:04:41.354Z,59959.28
2023-11-10T09:09:44.695Z,59967.69
2023-11-10T09:14:48.472Z,59961.41
2023-11-10T09:19:50.920Z,59967.69
2023-11-10T09:24:53.194Z,59944.56
2023-11-10T09:29:56.791Z,59978.22
2023-11-10T09:34:59.003Z,59986.63
2023-11-10T09:40:01.290Z,59986.63
2023-11-10T09:45:06.308Z,59967.69
2023-11-10T09:50:10.198Z,59969.81
2023-11-10T09:55:13.017Z,59982.41
2023-11-10T10:00:19.878Z,59984.53
2023-11-10T10:05:23.032Z,59974.00
2023-11-10T10:10:27.927Z,59990.81
2023-11-10T10:15:33.145Z,59986.63
2023-11-10T10:20:38.677Z,59997.13
2023-11-10T10:25:41.769Z,59948.78
2023-11-10T10:30:48.451Z,59980.31
2023-11-10T10:35:51.736Z,59965.59
2023-11-10T10:40:56.409Z,59999.22
2023-11-10T10:46:01.039Z,59971.91
2023-11-10T10:51:04.621Z,59976.13
2023-11-10T10:56:09.849Z,59995.03
2023-11-10T11:01:17.730Z,59974.00
2023-11-10T11:06:33.588Z,59978.22
2023-11-10T11:12:07.156Z,60011.84
2023-11-10T11:17:42.395Z,60005.53
2023-11-10T11:22:45.716Z,60032.88
2023-11-10T11:27:58.354Z,59980.31
2023-11-10T11:33:07.799Z,59974.00
2023-11-10T11:38:10.152Z,59999.22
2023-11-10T11:43:13.711Z,59982.41
2023-11-10T11:48:18.796Z,59969.81
2023-11-10T11:53:23.539Z,59995.03
2023-11-10T11:58:26.893Z,59984.53
2023-11-10T12:03:30.569Z,59978.22
2023-11-10T12:08:32.862Z,59999.22
2023-11-10T12:13:35.382Z,60018.16
2023-11-10T12:18:38.978Z,59971.91
2023-11-10T12:23:41.197Z,59990.81
2023-11-10T12:28:45.779Z,59999.22
2023-11-10T12:33:49.382Z,59957.19
2023-11-10T12:38:52.207Z,59961.41
2023-11-10T12:43:55.982Z,59990.81
2023-11-10T12:48:59.744Z,59978.22
2023-11-10T12:54:05.234Z,59988.72
2023-11-10T12:59:08.649Z,59976.13
2023-11-10T13:04:12.500Z,59976.13
2023-11-10T13:09:19.154Z,59955.09
2023-11-10T13:14:21.467Z,59980.31
2023-11-10T13:19:25.087Z,59944.56
2023-11-10T13:24:27.671Z,59963.50
2023-11-10T13:29:30.158Z,60001.34
2023-11-10T13:34:33.894Z,59986.63
2023-11-10T13:39:36.688Z,59986.63
2023-11-10T13:44:39.940Z,60005.53
2023-11-10T13:49:43.554Z,59988.72
2023-11-10T13:54:46.130Z,59999.22
2023-11-10T13:59:48.368Z,59982.41
2023-11-10T14:04:51.967Z,59974.00
2023-11-10T14:09:54.750Z,59984.53
2023-11-10T14:14:56.859Z,60018.16
2023-11-10T14:20:00.567Z,60001.34
2023-11-10T14:25:05.909Z,60028.66
2023-11-10T14:30:09.590Z,60032.88
2023-11-10T14:35:13.727Z,60007.66
2023-11-10T14:40:18.833Z,60020.25
2023-11-10T14:45:23.065Z,60007.66
2023-11-10T14:50:36.509Z,59990.81
2023-11-10T14:55:39.968Z,60026.56
2023-11-10T15:00:42.690Z,60003.44
2023-11-10T15:05:49.764Z,60001.34
2023-11-10T15:10:52.179Z,60011.84
2023-11-10T15:15:54.423Z,60022.34
2023-11-10T15:20:58.081Z,60018.16
2023-11-10T15:26:01.209Z,60001.34
2023-11-10T15:31:07.750Z,60037.06
2023-11-10T15:36:11.908Z,60041.28
2023-11-10T15:41:14.109Z,60028.66
2023-11-10T15:46:16.492Z,60062.31
2023-11-10T15:51:20.117Z,60028.66
2023-11-10T15:56:22.315Z,60043.38
2023-11-10T16:01:25.177Z,60032.88
2023-11-10T16:06:30.680Z,59978.22
2023-11-10T16:11:34.427Z,60058.09
2023-11-10T16:16:36.700Z,60062.31
2023-11-10T16:21:40.299Z,60024.47
2023-11-10T16:26:42.558Z,60007.66
2023-11-10T16:31:45.166Z,60020.25
2023-11-10T16:36:49.159Z,60022.34
2023-11-10T16:41:54.344Z,60032.88
2023-11-10T16:46:56.849Z,60037.06
2023-11-10T16:52:01.015Z,60032.88
2023-11-10T16:57:05.237Z,60045.47
2023-11-10T17:02:07.893Z,60026.56
2023-11-10T17:07:11.629Z,60049.69
2023-11-10T17:12:14.725Z,60041.28
2023-11-10T17:17:22.864Z,60041.28
2023-11-10T17:22:26.478Z,60041.28
2023-11-10T17:27:28.793Z,60028.66
2023-11-10T17:32:31.071Z,60043.38
2023-11-10T17:37:34.686Z,60062.31
2023-11-10T17:42:36.941Z,60079.13
2023-11-10T17:47:41.818Z,60011.84
2023-11-10T17:52:45.587Z,60045.47
2023-11-10T17:57:48.771Z,60085.44
2023-11-10T18:02:54.065Z,60022.34
2023-11-10T18:07:59.315Z,60049.69
2023-11-10T18:13:01.532Z,60032.88
2023-11-10T18:18:04.230Z,60095.94
2023-11-10T18:23:08.607Z,60095.94
2023-11-10T18:28:12.964Z,60058.09
2023-11-10T18:33:15.336Z,60066.50
2023-11-10T18:38:18.966Z,60049.69
2023-11-10T18:43:21.198Z,60049.69
2023-11-10T18:48:23.690Z,60060.19
2023-11-10T18:53:27.551Z,60060.19
2023-11-10T18:58:29.726Z,60039.19
2023-11-10T19:03:32.001Z,60024.47
2023-11-10T19:08:37.888Z,60051.78
2023-11-10T19:13:40.301Z,60079.13
2023-11-10T19:18:42.898Z,60087.53
2023-11-10T19:23:46.499Z,60037.06
2023-11-10T19:28:49.517Z,60037.06
2023-11-10T19:33:51.850Z,60053.91
2023-11-10T19:38:55.526Z,60037.06
2023-11-10T19:44:00.560Z,60087.53
2023-11-10T19:49:02.829Z,60056.00
2023-11-10T20:04:20.228Z,60049.69
2023-11-10T20:09:24.261Z,60011.84
2023-11-10T20:14:26.552Z,60062.31
2023-11-10T20:19:28.881Z,60009.75
2023-11-10T20:24:33.139Z,60074.91
2023-11-10T20:29:35.625Z,60045.47
2023-11-10T20:34:37.851Z,60072.81
2023-11-10T20:39:41.856Z,60037.06
2023-11-10T20:44:44.696Z,60087.53
2023-11-10T20:49:46.881Z,60066.50
2023-11-10T20:54:50.564Z,60070.72
2023-11-10T20:59:52.844Z,60009.75
2023-11-10T21:04:55.035Z,60081.22
2023-11-10T21:09:59.327Z,60072.81
2023-11-10T21:15:02.179Z,60041.28
2023-11-10T21:20:07.024Z,60079.13
2023-11-10T21:25:10.657Z,60007.66
2023-11-10T21:30:13.181Z,60070.72
2023-11-10T21:35:16.331Z,60024.47
2023-11-10T21:40:22.482Z,60028.66
2023-11-10T21:45:26.789Z,60068.59
2023-11-10T21:50:29.064Z,60089.63
2023-11-10T21:55:33.587Z,60072.81
2023-11-10T22:00:36.339Z,60100.13
2023-11-10T22:05:39.351Z,60049.69
2023-11-10T22:10:43.702Z,60093.84
2023-11-10T22:15:46.015Z,60032.88
2023-11-10T22:20:48.341Z,60045.47
2023-11-10T22:25:52.001Z,60053.91
2023-11-10T22:30:54.310Z,60074.91
2023-11-10T22:35:58.790Z,60041.28
2023-11-10T22:41:02.382Z,60079.13
2023-11-10T22:46:06.848Z,60058.09
2023-11-10T22:51:09.399Z,60049.69
2023-11-10T22:56:13.038Z,60072.81
2023-11-10T23:01:15.745Z,60100.13
2023-11-10T23:06:18.679Z,60070.72
2023-11-10T23:11:22.109Z,60077.00
2023-11-10T23:16:24.500Z,60039.19
2023-11-10T23:21:28.164Z,60043.38
2023-11-10T23:26:31.778Z,60066.50
2023-11-10T23:31:34.492Z,60087.53
2023-11-10T23:36:38.128Z,60070.72
2023-11-10T23:41:42.141Z,60028.66
2023-11-10T23:46:44.395Z,60087.53
2023-11-10T23:51:46.749Z,60062.31
2023-11-10T23:56:50.467Z,60024.47
